Time;durP1;ratioP1;P1;durP2;ratioP2;P2;SDS_P1;SDS_P2;PMS_P1;PMS_P2;Temp;Humidity;BMP_temperature;BMP_pressure;BME280_temperature;BME280_humidity;BME280_pressure;Samples;Min_cycle;Max_cycle;Signal;HPM_P1;HPM_P2
2021/05/21 00:02:06;;;;;;;1.85;0.40;;;13.00;92.80;;;;;;10072663;29;20049;-58
2021/05/21 00:07:08;;;;;;;2.42;0.93;;;12.90;93.00;;;;;;10075013;29;20053;-58
2021/05/21 00:12:09;;;;;;;2.90;0.40;;;12.80;93.90;;;;;;10075750;29;20108;-58
2021/05/21 00:17:11;;;;;;;0.55;0.40;;;12.80;94.10;;;;;;10071488;29;20434;-58
2021/05/21 00:22:13;;;;;;;3.42;0.50;;;12.60;94.80;;;;;;10071309;29;20786;-58
2021/05/21 00:27:15;;;;;;;0.90;0.70;;;12.60;95.30;;;;;;10073721;29;20089;-58
2021/05/21 00:32:16;;;;;;;2.33;0.50;;;12.50;95.90;;;;;;10072778;29;20053;-58
2021/05/21 00:37:18;;;;;;;1.38;0.80;;;12.40;97.10;;;;;;10071125;29;20053;-58
2021/05/21 00:42:20;;;;;;;1.63;0.68;;;12.30;98.00;;;;;;10071072;29;20084;-57
2021/05/21 00:47:22;;;;;;;3.95;0.65;;;12.30;98.80;;;;;;10070863;29;20045;-58
2021/05/21 00:52:26;;;;;;;6.72;0.70;;;12.30;99.20;;;;;;10072908;29;20143;-58
2021/05/21 00:57:28;;;;;;;2.42;0.50;;;12.30;99.30;;;;;;10070227;29;20053;-58
2021/05/21 01:02:30;;;;;;;0.60;0.45;;;12.30;99.90;;;;;;10070354;29;20091;-58
2021/05/21 01:07:32;;;;;;;1.15;0.70;;;12.20;99.90;;;;;;10071370;29;20053;-58
2021/05/21 01:12:33;;;;;;;0.60;0.60;;;12.20;99.90;;;;;;10068915;29;20647;-58
2021/05/21 01:17:35;;;;;;;0.95;0.65;;;12.20;99.90;;;;;;10068575;29;20113;-58
2021/05/21 01:22:37;;;;;;;2.35;0.50;;;12.30;99.60;;;;;;10068838;29;20053;-58
2021/05/21 01:27:38;;;;;;;0.40;0.40;;;12.30;99.70;;;;;;10068581;29;20045;-58
2021/05/21 01:32:41;;;;;;;0.80;0.50;;;12.30;99.20;;;;;;10065837;29;20065;-57
2021/05/21 01:37:45;;;;;;;0.73;0.60;;;12.40;99.90;;;;;;10069893;29;20489;-58
2021/05/21 01:42:46;;;;;;;2.92;0.50;;;12.40;99.90;;;;;;10071102;29;20049;-58
2021/05/21 01:47:49;;;;;;;0.82;0.50;;;12.40;99.60;;;;;;10067948;29;20068;-58
2021/05/21 01:52:51;;;;;;;1.13;0.52;;;12.40;99.90;;;;;;10069935;29;20065;-58
2021/05/21 01:57:52;;;;;;;1.98;0.40;;;12.40;99.90;;;;;;10073593;29;20049;-60
2021/05/21 02:02:54;;;;;;;1.20;0.50;;;12.30;99.90;;;;;;10045924;29;20057;-58
2021/05/21 02:07:56;;;;;;;2.22;0.50;;;12.30;99.90;;;;;;10070565;29;20105;-59
2021/05/21 02:12:57;;;;;;;2.72;0.57;;;12.20;99.90;;;;;;10069812;29;20484;-58
2021/05/21 02:17:59;;;;;;;1.95;0.50;;;12.20;99.90;;;;;;10068502;29;20053;-58
2021/05/21 02:23:03;;;;;;;3.17;0.73;;;12.10;99.90;;;;;;10069787;29;20120;-60
2021/05/21 02:28:05;;;;;;;2.50;0.75;;;12.10;99.90;;;;;;10071981;29;20108;-58
2021/05/21 02:33:07;;;;;;;3.67;0.50;;;12.00;99.90;;;;;;10069048;29;20863;-60
2021/05/21 02:38:09;;;;;;;2.35;0.60;;;11.90;99.90;;;;;;10067552;29;20116;-58
2021/05/21 02:43:10;;;;;;;1.83;0.50;;;11.90;99.90;;;;;;10073611;29;20532;-58
2021/05/21 02:48:12;;;;;;;1.23;0.68;;;11.80;99.90;;;;;;10076992;29;20485;-58
2021/05/21 02:53:14;;;;;;;0.82;0.57;;;11.80;99.90;;;;;;10075796;29;20055;-58
2021/05/21 02:58:19;;;;;;;2.15;0.50;;;11.70;99.90;;;;;;10074401;29;20059;-58
2021/05/21 03:03:20;;;;;;;1.75;0.63;;;11.60;99.90;;;;;;10059658;29;20084;-58
2021/05/21 03:08:23;;;;;;;3.97;0.63;;;11.50;99.90;;;;;;10073086;29;20536;-58
2021/05/21 03:13:25;;;;;;;0.80;0.70;;;11.50;99.90;;;;;;10075964;29;20200;-58
2021/05/21 03:18:27;;;;;;;1.85;1.13;;;11.40;99.90;;;;;;10075465;29;20049;-58
2021/05/21 03:23:29;;;;;;;3.95;0.90;;;11.40;99.90;;;;;;10073805;29;20116;-59
2021/05/21 03:28:31;;;;;;;1.00;0.80;;;11.20;99.90;;;;;;10075620;29;20053;-59
2021/05/21 03:33:33;;;;;;;1.17;0.80;;;11.10;99.90;;;;;;10074900;29;20049;-59
2021/05/21 03:38:34;;;;;;;1.85;0.65;;;11.20;99.90;;;;;;10072449;29;20060;-59
2021/05/21 03:43:37;;;;;;;2.38;1.15;;;11.00;99.90;;;;;;10074230;29;20044;-59
2021/05/21 03:48:39;;;;;;;1.58;0.95;;;11.00;99.90;;;;;;10074659;29;20065;-59
2021/05/21 03:53:40;;;;;;;2.35;0.90;;;11.00;99.90;;;;;;10071837;29;20480;-59
2021/05/21 03:58:42;;;;;;;1.67;0.80;;;10.80;99.90;;;;;;10072720;29;20064;-59
2021/05/21 04:03:44;;;;;;;9.70;1.15;;;10.80;99.90;;;;;;10074164;29;20085;-59
2021/05/21 04:08:45;;;;;;;0.90;0.80;;;10.90;99.90;;;;;;10070867;29;20056;-59
2021/05/21 04:13:47;;;;;;;3.45;1.13;;;11.00;99.90;;;;;;10071867;29;20069;-59
2021/05/21 04:18:49;;;;;;;3.60;1.45;;;11.00;99.90;;;;;;10069232;29;20053;-59
2021/05/21 04:23:51;;;;;;;2.75;1.08;;;11.00;99.90;;;;;;10071923;29;20124;-59
2021/05/21 04:28:52;;;;;;;2.05;1.27;;;11.20;99.90;;;;;;10072723;29;20437;-59
2021/05/21 04:33:54;;;;;;;2.72;1.45;;;11.20;99.90;;;;;;10070800;29;20056;-59
2021/05/21 04:38:56;;;;;;;1.77;1.33;;;11.30;99.90;;;;;;10072033;29;20056;-59
2021/05/21 04:43:58;;;;;;;1.17;0.82;;;11.50;99.90;;;;;;10072896;29;20069;-59
2021/05/21 04:49:00;;;;;;;3.95;0.63;;;11.60;99.90;;;;;;10074291;29;20041;-59
2021/05/21 04:54:02;;;;;;;1.73;0.70;;;11.70;99.90;;;;;;10072353;29;20047;-59
2021/05/21 04:59:03;;;;;;;1.85;0.65;;;11.80;99.90;;;;;;10070809;29;20052;-59
2021/05/21 05:04:05;;;;;;;1.42;0.70;;;11.90;99.90;;;;;;10069892;29;20105;-59
2021/05/21 05:09:07;;;;;;;5.32;1.13;;;12.00;99.90;;;;;;10070406;29;20049;-59
2021/05/21 05:14:10;;;;;;;122.85;21.58;;;12.10;99.90;;;;;;10073842;29;20057;-60
2021/05/21 05:19:12;;;;;;;16.98;4.30;;;12.20;99.90;;;;;;10058847;29;20045;-59
2021/05/21 05:24:17;;;;;;;3.78;0.68;;;12.30;99.90;;;;;;10061150;29;20398;-59
2021/05/21 05:29:19;;;;;;;2.10;0.45;;;12.50;99.90;;;;;;10066585;29;20060;-59
2021/05/21 05:34:21;;;;;;;0.73;0.47;;;12.70;99.90;;;;;;10066107;29;20406;-59
2021/05/21 05:39:23;;;;;;;1.15;0.47;;;12.70;99.90;;;;;;10070802;29;20053;-59
2021/05/21 05:44:25;;;;;;;5.18;0.47;;;12.80;99.90;;;;;;10073224;29;20071;-59
2021/05/21 05:49:29;;;;;;;5.47;0.55;;;12.90;99.90;;;;;;10064871;29;20052;-59
2021/05/21 05:54:30;;;;;;;3.08;0.98;;;13.20;99.90;;;;;;10071949;29;20053;-59
2021/05/21 05:59:32;;;;;;;2.00;0.40;;;13.10;99.90;;;;;;10073059;29;20567;-59
2021/05/21 06:04:34;;;;;;;0.88;0.50;;;13.20;99.90;;;;;;10070451;29;20434;-59
2021/05/21 06:09:36;;;;;;;1.40;0.40;;;13.30;99.90;;;;;;10069151;29;20053;-59
2021/05/21 06:14:37;;;;;;;1.77;0.40;;;13.40;99.90;;;;;;10072839;29;20049;-58
2021/05/21 06:19:39;;;;;;;2.90;0.38;;;13.60;99.80;;;;;;10055418;29;20053;-59
2021/05/21 06:24:46;;;;;;;0.52;0.40;;;13.80;98.70;;;;;;10070201;29;20577;-59
2021/05/21 06:29:47;;;;;;;0.77;0.40;;;13.90;98.30;;;;;;10077988;29;20045;-59
2021/05/21 06:34:49;;;;;;;2.17;0.30;;;14.00;97.30;;;;;;10072357;29;20368;-60
2021/05/21 06:39:58;;;;;;;3.22;0.77;;;14.30;96.80;;;;;;10076868;29;20048;-59
2021/05/21 06:44:59;;;;;;;0.77;0.70;;;14.30;95.20;;;;;;10078657;29;20137;-59
2021/05/21 06:50:02;;;;;;;1.83;0.32;;;14.40;94.40;;;;;;10074979;29;20057;-60
2021/05/21 06:55:05;;;;;;;1.33;0.20;;;14.50;93.90;;;;;;10075770;29;20052;-59
2021/05/21 07:00:07;;;;;;;0.30;0.20;;;14.60;92.70;;;;;;10077102;29;20073;-59
2021/05/21 07:05:12;;;;;;;1.23;0.40;;;14.70;91.60;;;;;;10066639;29;20093;-60
2021/05/21 07:10:15;;;;;;;4.03;0.68;;;14.80;90.40;;;;;;10076068;29;20049;-59
2021/05/21 07:15:17;;;;;;;2.85;0.60;;;14.90;89.00;;;;;;10077528;29;20049;-59
2021/05/21 07:20:19;;;;;;;1.67;0.40;;;14.90;89.30;;;;;;10059885;29;20049;-59
2021/05/21 07:25:21;;;;;;;0.60;0.20;;;14.90;87.90;;;;;;10075697;29;20061;-59
2021/05/21 07:30:23;;;;;;;3.28;0.35;;;14.90;86.50;;;;;;10076378;29;20061;-59
2021/05/21 07:35:25;;;;;;;2.20;0.30;;;15.10;87.40;;;;;;10074422;29;20061;-59
2021/05/21 07:40:27;;;;;;;3.85;0.30;;;15.10;85.50;;;;;;10078047;29;20053;-60
2021/05/21 07:45:29;;;;;;;2.50;0.20;;;15.00;84.70;;;;;;10073865;29;20050;-60
2021/05/21 07:50:31;;;;;;;2.42;0.20;;;15.10;84.00;;;;;;10073801;29;20057;-60
2021/05/21 07:55:34;;;;;;;0.22;0.17;;;15.10;85.30;;;;;;10074114;29;20485;-60
2021/05/21 08:00:36;;;;;;;0.52;0.25;;;15.20;83.50;;;;;;10076030;29;20060;-59
2021/05/21 08:05:37;;;;;;;1.08;0.20;;;15.10;83.90;;;;;;10076021;29;20060;-60
2021/05/21 08:10:56;;;;;;;1.33;0.30;;;15.10;83.80;;;;;;10066785;29;20136;-60
2021/05/21 08:15:58;;;;;;;3.35;0.20;;;15.30;83.10;;;;;;10060806;29;20559;-60
2021/05/21 08:21:00;;;;;;;2.65;0.20;;;15.30;83.20;;;;;;10075477;29;20056;-60
2021/05/21 08:26:02;;;;;;;0.52;0.17;;;15.20;83.40;;;;;;10074271;29;20112;-60
2021/05/21 08:31:04;;;;;;;2.47;0.20;;;15.30;84.70;;;;;;10072999;29;20114;-60
2021/05/21 08:36:07;;;;;;;1.55;0.13;;;15.40;84.20;;;;;;10072005;29;20405;-60
2021/05/21 08:41:17;;;;;;;3.10;0.40;;;15.20;83.60;;;;;;10072131;29;20064;-59
2021/05/21 08:46:21;;;;;;;0.30;0.20;;;15.40;84.70;;;;;;10068915;29;20108;-60
2021/05/21 08:51:23;;;;;;;1.60;0.20;;;15.60;84.20;;;;;;10071482;29;20061;-60
2021/05/21 08:56:26;;;;;;;1.88;0.30;;;15.80;82.30;;;;;;10070684;29;20052;-60
2021/05/21 09:01:28;;;;;;;0.93;0.20;;;15.80;81.60;;;;;;10069367;29;20053;-60
2021/05/21 09:06:42;;;;;;;0.40;0.30;;;16.00;82.50;;;;;;10071132;29;20568;-60
2021/05/21 09:11:46;;;;;;;2.88;0.20;;;15.90;79.30;;;;;;10071270;29;20140;-60
2021/05/21 09:16:48;;;;;;;1.85;0.30;;;16.00;78.90;;;;;;10070647;29;20060;-62
2021/05/21 09:21:57;;;;;;;0.73;0.20;;;16.10;75.60;;;;;;10071293;29;20045;-60
2021/05/21 09:27:00;;;;;;;2.92;0.30;;;15.90;76.30;;;;;;10069105;29;20053;-60
2021/05/21 09:32:32;;;;;;;5.22;0.20;;;16.10;77.00;;;;;;10068474;29;20060;-60
2021/05/21 09:37:35;;;;;;;6.85;0.38;;;16.00;76.20;;;;;;10022655;29;20049;-60
2021/05/21 09:42:45;;;;;;;6.40;0.65;;;15.90;76.20;;;;;;10069015;29;20060;-60
2021/05/21 09:47:48;;;;;;;2.25;0.28;;;15.90;75.40;;;;;;10069673;29;20065;-60
2021/05/21 09:52:50;;;;;;;4.13;0.68;;;16.10;74.50;;;;;;10076782;29;20053;-60
2021/05/21 09:57:52;;;;;;;1.70;0.30;;;16.20;74.60;;;;;;10077674;29;20052;-60
2021/05/21 10:02:54;;;;;;;2.83;0.30;;;16.50;72.20;;;;;;10080065;29;20045;-60
2021/05/21 10:07:57;;;;;;;6.57;1.05;;;16.60;71.60;;;;;;10078350;29;20081;-60
2021/05/21 10:12:58;;;;;;;2.90;0.30;;;16.30;71.60;;;;;;10079923;29;20051;-60
2021/05/21 10:18:01;;;;;;;2.45;0.40;;;16.60;71.50;;;;;;10079438;29;20113;-60
2021/05/21 10:23:05;;;;;;;7.07;0.70;;;16.70;68.70;;;;;;10079322;29;20442;-60
2021/05/21 10:28:09;;;;;;;2.35;0.30;;;16.60;69.70;;;;;;10073441;29;20057;-60
2021/05/21 10:33:22;;;;;;;5.82;0.30;;;16.40;67.20;;;;;;10075830;29;20057;-59
2021/05/21 10:38:26;;;;;;;4.75;0.70;;;16.30;67.70;;;;;;10074929;29;20469;-59
2021/05/21 10:43:27;;;;;;;6.55;0.50;;;16.40;68.60;;;;;;10076003;29;20108;-59
2021/05/21 10:48:29;;;;;;;1.55;0.30;;;17.00;69.00;;;;;;10075549;29;20084;-59
2021/05/21 10:53:31;;;;;;;3.67;0.77;;;17.00;65.60;;;;;;10075352;29;20113;-60
2021/05/21 10:58:38;;;;;;;7.18;0.47;;;16.80;66.40;;;;;;10076168;29;20057;-60
2021/05/21 11:03:58;;;;;;;4.57;0.57;;;17.10;65.00;;;;;;10074344;29;20113;-60
2021/05/21 11:09:08;;;;;;;3.95;0.60;;;16.90;63.60;;;;;;10027703;29;20057;-59
2021/05/21 11:14:44;;;;;;;5.93;0.45;;;17.10;64.90;;;;;;10074560;29;20492;-60
2021/05/21 11:19:48;;;;;;;4.10;0.40;;;17.40;65.00;;;;;;10027036;29;20049;-60
2021/05/21 11:25:05;;;;;;;4.80;0.30;;;17.30;63.20;;;;;;10069536;29;20049;-60
2021/05/21 11:30:14;;;;;;;4.95;0.65;;;17.40;63.50;;;;;;10074343;29;20473;-61
2021/05/21 11:35:16;;;;;;;4.38;0.22;;;17.30;63.00;;;;;;10072595;29;20045;-60
2021/05/21 11:40:23;;;;;;;4.75;0.60;;;17.30;64.70;;;;;;10071877;29;20052;-60
2021/05/21 11:45:27;;;;;;;4.65;0.40;;;18.00;64.90;;;;;;10068885;29;20061;-61
2021/05/21 11:50:31;;;;;;;4.88;0.70;;;17.50;65.30;;;;;;10071704;29;20609;-60
2021/05/21 11:55:33;;;;;;;8.85;0.60;;;17.90;65.10;;;;;;10073380;29;20124;-60
2021/05/21 12:00:39;;;;;;;2.13;0.40;;;17.50;62.80;;;;;;10072655;29;20045;-60
2021/05/21 12:05:40;;;;;;;5.75;0.50;;;17.70;61.40;;;;;;10072422;29;20056;-60
2021/05/21 12:10:54;;;;;;;8.07;0.35;;;18.40;58.50;;;;;;10071013;29;20128;-60
2021/05/21 12:16:19;;;;;;;5.45;0.50;;;18.30;58.60;;;;;;10071398;29;20401;-60
2021/05/21 12:21:22;;;;;;;4.43;0.30;;;18.20;58.50;;;;;;10069815;29;20601;-60
2021/05/21 12:26:27;;;;;;;4.15;0.73;;;18.10;57.90;;;;;;10071490;29;20434;-60
2021/05/21 12:31:53;;;;;;;6.15;0.60;;;17.90;57.20;;;;;;10068846;29;20110;-60
2021/05/21 12:37:03;;;;;;;5.05;0.50;;;17.90;58.10;;;;;;10067668;29;20055;-60
2021/05/21 12:42:06;;;;;;;3.65;0.40;;;18.20;59.70;;;;;;10071487;29;20053;-59
2021/05/21 12:47:14;;;;;;;4.22;0.40;;;18.00;60.60;;;;;;10070056;29;20053;-60
2021/05/21 12:52:16;;;;;;;6.13;0.77;;;18.10;59.70;;;;;;10071630;29;20194;-60
2021/05/21 12:57:21;;;;;;;4.20;0.30;;;17.80;60.50;;;;;;10068568;29;20560;-60
2021/05/21 13:02:25;;;;;;;3.50;0.40;;;17.80;59.50;;;;;;10069980;29;20485;-60
2021/05/21 13:07:33;;;;;;;4.60;0.30;;;17.70;60.80;;;;;;10070960;29;20489;-60
2021/05/21 13:12:41;;;;;;;4.28;0.40;;;18.20;59.60;;;;;;10070471;29;20117;-60
2021/05/21 13:17:45;;;;;;;3.63;0.30;;;18.10;59.40;;;;;;10069153;29;20488;-60
2021/05/21 13:23:09;;;;;;;6.32;0.40;;;18.30;58.60;;;;;;10068215;29;20044;-59
2021/05/21 13:28:11;;;;;;;2.42;0.20;;;18.40;56.00;;;;;;10021248;29;20207;-59
2021/05/21 13:33:12;;;;;;;2.72;0.30;;;18.50;54.70;;;;;;10070833;29;20055;-60
2021/05/21 13:38:14;;;;;;;4.35;0.50;;;18.40;55.90;;;;;;10070317;29;20527;-60
2021/05/21 13:43:18;;;;;;;7.32;0.40;;;18.40;55.10;;;;;;10068344;29;20508;-60
2021/05/21 13:48:20;;;;;;;7.22;0.60;;;19.00;53.70;;;;;;10069655;29;20065;-59
2021/05/21 13:53:24;;;;;;;3.58;0.30;;;19.00;52.90;;;;;;10064149;29;20586;-60
2021/05/21 13:58:25;;;;;;;5.53;0.30;;;19.00;53.20;;;;;;10068319;29;20117;-60
2021/05/21 14:03:27;;;;;;;3.45;0.20;;;19.40;52.80;;;;;;10069112;29;20064;-60
2021/05/21 14:08:29;;;;;;;1.52;0.47;;;19.30;53.80;;;;;;10068178;29;20049;-60
2021/05/21 14:13:30;;;;;;;3.33;0.30;;;19.80;52.50;;;;;;10066937;29;20497;-60
2021/05/21 14:18:32;;;;;;;1.98;0.30;;;19.50;51.20;;;;;;10070457;29;20045;-60
2021/05/21 14:23:34;;;;;;;3.40;0.30;;;19.40;51.70;;;;;;10064241;29;20133;-60
2021/05/21 14:28:36;;;;;;;5.07;0.63;;;19.30;51.60;;;;;;10069165;29;20084;-60
2021/05/21 14:33:43;;;;;;;5.63;0.40;;;19.70;51.40;;;;;;10070887;29;20544;-61
2021/05/21 14:38:45;;;;;;;3.88;0.17;;;19.80;51.00;;;;;;10073955;29;20057;-60
2021/05/21 14:43:47;;;;;;;4.22;0.30;;;19.60;49.40;;;;;;10077579;29;20057;-60
2021/05/21 14:48:49;;;;;;;4.15;0.25;;;19.50;51.30;;;;;;10074382;29;20137;-60
2021/05/21 14:53:58;;;;;;;3.72;0.65;;;19.00;51.90;;;;;;10075570;29;20092;-61
2021/05/21 14:59:02;;;;;;;5.15;0.30;;;19.40;51.90;;;;;;10072635;29;20049;-60
2021/05/21 15:04:07;;;;;;;6.72;0.77;;;20.30;50.00;;;;;;10072943;29;20060;-60
2021/05/21 15:09:11;;;;;;;3.50;0.20;;;20.20;51.10;;;;;;10073264;29;20048;-60
2021/05/21 15:14:14;;;;;;;2.55;0.30;;;20.20;49.70;;;;;;10076079;29;20049;-60
2021/05/21 15:24:41;;;;;;;1.85;0.30;;;20.30;49.90;;;;;;10015867;29;20056;-60
2021/05/21 15:29:42;;;;;;;2.13;0.22;;;19.60;51.50;;;;;;10074775;29;20112;-60
2021/05/21 15:34:44;;;;;;;2.22;0.20;;;19.00;52.30;;;;;;10074255;29;20049;-60
2021/05/21 15:39:46;;;;;;;2.65;0.30;;;18.70;52.40;;;;;;10077951;29;20045;-60
2021/05/21 16:00:15;;;;;;;3.83;0.38;;;19.40;54.50;;;;;;10074460;29;20049;-60
2021/05/21 16:05:18;;;;;;;2.88;0.30;;;18.90;56.00;;;;;;10074136;29;20084;-60
2021/05/21 16:10:26;;;;;;;5.55;0.30;;;19.30;54.80;;;;;;10072122;29;20084;-60
2021/05/21 16:15:28;;;;;;;4.40;0.38;;;19.50;55.30;;;;;;10072768;29;20049;-60
2021/05/21 16:20:30;;;;;;;3.75;0.20;;;18.90;54.50;;;;;;10073150;29;20108;-60
2021/05/21 16:25:33;;;;;;;3.83;0.30;;;19.40;53.70;;;;;;10072223;29;20141;-60
2021/05/21 16:30:36;;;;;;;1.67;0.30;;;19.50;52.60;;;;;;10070658;29;20064;-61
2021/05/21 16:35:37;;;;;;;1.63;0.25;;;19.80;53.00;;;;;;10072895;29;20048;-59
2021/05/21 16:40:40;;;;;;;3.90;0.55;;;19.80;53.10;;;;;;10055279;29;20048;-60
2021/05/21 16:45:42;;;;;;;4.30;0.22;;;19.40;52.90;;;;;;10069722;29;20057;-60
2021/05/21 16:50:44;;;;;;;4.55;0.82;;;19.60;53.00;;;;;;10069949;29;20113;-60
2021/05/21 16:55:46;;;;;;;3.63;0.30;;;19.40;52.90;;;;;;10069911;29;20195;-60
2021/05/21 17:00:47;;;;;;;3.08;0.30;;;19.00;54.70;;;;;;10071118;29;20148;-60
2021/05/21 17:05:49;;;;;;;2.60;0.30;;;18.60;56.50;;;;;;10066272;29;20060;-60
2021/05/21 17:10:52;;;;;;;4.90;0.55;;;19.50;55.80;;;;;;10068991;29;20083;-60
2021/05/21 17:16:09;;;;;;;2.28;0.30;;;18.50;56.80;;;;;;10071250;29;20105;-60
2021/05/21 17:21:33;;;;;;;3.60;0.50;;;18.70;57.40;;;;;;10068256;29;20049;-60
2021/05/21 17:26:58;;;;;;;1.88;0.30;;;18.90;57.00;;;;;;10022584;29;20056;-60
2021/05/21 17:42:52;;;;;;;5.30;1.00;;;19.00;56.00;;;;;;10072631;29;20446;-61
2021/05/21 17:48:02;;;;;;;2.20;0.50;;;18.90;55.90;;;;;;10069887;29;20096;-61
2021/05/21 17:53:18;;;;;;;6.18;0.50;;;19.00;56.20;;;;;;10069447;29;20081;-60
2021/05/21 17:58:40;;;;;;;4.47;0.60;;;19.10;55.70;;;;;;10069864;29;20525;-60
2021/05/21 18:08:52;;;;;;;2.05;0.30;;;17.70;58.10;;;;;;10069922;29;20113;-61
2021/05/21 18:46:10;;;;;;;2.15;0.30;;;15.40;74.00;;;;;;10073326;29;20052;-60
2021/05/21 18:51:23;;;;;;;1.85;0.30;;;15.40;74.60;;;;;;10075513;29;20041;-60
2021/05/21 19:01:50;;;;;;;6.32;0.32;;;15.10;76.80;;;;;;10074745;29;20567;-60
2021/05/21 19:12:27;;;;;;;3.25;0.30;;;14.90;78.10;;;;;;10075714;29;20113;-60
2021/05/21 19:17:38;;;;;;;6.47;0.60;;;14.80;79.40;;;;;;10074072;29;20052;-60
2021/05/21 19:23:06;;;;;;;2.95;0.40;;;14.80;80.00;;;;;;10074326;29;20056;-60
2021/05/21 19:28:15;;;;;;;3.42;0.77;;;14.70;81.10;;;;;;10029549;29;20414;-61
2021/05/21 19:43:39;;;;;;;2.55;0.30;;;14.40;83.90;;;;;;10073312;29;20053;-60
2021/05/21 20:14:57;;;;;;;3.88;0.30;;;14.00;88.70;;;;;;10068916;29;20049;-59
2021/05/21 20:19:59;;;;;;;1.00;0.22;;;13.90;88.60;;;;;;10070567;29;20492;-59
2021/05/21 20:25:19;;;;;;;2.33;0.57;;;13.90;89.20;;;;;;10069566;29;20056;-59
2021/05/21 20:30:29;;;;;;;2.28;0.32;;;13.90;89.30;;;;;;10067352;29;20076;-58
2021/05/21 20:35:51;;;;;;;1.85;0.30;;;13.90;90.00;;;;;;10050855;29;527694;-59
2021/05/21 21:03:06;;;;;;;1.67;0.30;;;13.90;93.60;;;;;;10021805;29;20049;-60
2021/05/21 21:08:23;;;;;;;;;;;13.90;94.50;;;;;;10027028;29;20057;-60
2021/05/21 21:13:39;;;;;;;1.88;0.30;;;13.80;95.70;;;;;;10066682;29;20379;-60
2021/05/21 21:18:59;;;;;;;0.88;0.20;;;13.60;99.90;;;;;;10062616;29;20492;-59
2021/05/21 21:50:31;;;;;;;0.45;0.20;;;13.10;99.90;;;;;;10064077;29;20061;-56
2021/05/21 22:01:15;;;;;;;0.57;0.20;;;13.10;99.90;;;;;;10004334;29;20466;-57
2021/05/21 22:21:50;;;;;;;8.43;0.85;;;12.40;99.90;;;;;;10068751;29;20453;-56
2021/05/21 22:26:52;;;;;;;9.00;0.45;;;9.40;99.90;;;;;;10066613;29;20104;-56
2021/05/21 22:31:54;;;;;;;4.85;0.40;;;8.90;99.90;;;;;;10068159;29;20057;-58
2021/05/21 22:36:56;;;;;;;6.03;0.77;;;8.70;99.90;;;;;;10068006;29;20053;-56
2021/05/21 22:41:58;;;;;;;2.80;0.47;;;8.80;99.90;;;;;;10068179;29;20129;-55
2021/05/21 22:47:00;;;;;;;7.18;0.60;;;9.00;99.90;;;;;;10065155;29;20588;-57
2021/05/21 22:52:02;;;;;;;6.60;0.63;;;9.00;99.90;;;;;;10066005;29;20649;-56
2021/05/21 22:57:04;;;;;;;4.28;0.52;;;9.10;99.90;;;;;;10067669;29;20544;-57
2021/05/21 23:02:06;;;;;;;8.60;0.73;;;9.00;99.90;;;;;;10071393;29;20053;-55
2021/05/21 23:07:08;;;;;;;8.52;0.40;;;9.00;99.90;;;;;;10072822;29;20088;-57
2021/05/21 23:12:10;;;;;;;2.80;0.60;;;9.00;99.90;;;;;;10074284;29;20500;-56
2021/05/21 23:17:11;;;;;;;3.40;0.50;;;8.80;99.90;;;;;;10074457;29;20058;-56
2021/05/21 23:22:13;;;;;;;9.20;0.60;;;8.90;99.90;;;;;;10076111;29;20061;-57
2021/05/21 23:27:15;;;;;;;3.85;0.47;;;8.90;99.90;;;;;;10074990;29;20049;-56
2021/05/21 23:32:16;;;;;;;5.70;0.55;;;8.90;99.90;;;;;;10073053;29;20056;-57
2021/05/21 23:37:18;;;;;;;7.43;0.93;;;9.10;99.90;;;;;;10073844;29;20061;-57
2021/05/21 23:42:20;;;;;;;3.85;0.80;;;9.00;99.90;;;;;;10075057;29;20393;-56
2021/05/21 23:47:21;;;;;;;6.75;0.80;;;9.10;99.90;;;;;;10072185;29;20113;-56
2021/05/21 23:52:23;;;;;;;7.18;0.50;;;9.30;99.90;;;;;;10073004;29;20073;-56
2021/05/21 23:57:26;;;;;;;8.95;0.73;;;9.40;99.90;;;;;;10072589;29;20064;-58
